createdAt,value
2022-07-31T00:01:25.330Z,99514.47
2022-07-31T00:03:53.843Z,99513.56
2022-07-31T00:06:23.199Z,99519.31
2022-07-31T00:08:50.943Z,99513.19
2022-07-31T00:11:19.059Z,99509.81
2022-07-31T00:13:57.952Z,99510.84
2022-07-31T00:16:26.556Z,99504.59
2022-07-31T00:18:54.254Z,99515.94
2022-07-31T00:21:21.943Z,99508.25
2022-07-31T00:23:50.615Z,99509.19
2022-07-31T00:26:18.505Z,99497.66
2022-07-31T00:28:48.800Z,99505.37
2022-07-31T00:31:18.666Z,99508.72
2022-07-31T00:33:47.719Z,99505.00
2022-07-31T00:36:15.407Z,99496.34
2022-07-31T00:38:43.707Z,99508.50
2022-07-31T00:41:12.243Z,99503.16
2022-07-31T00:43:39.783Z,99503.97
2022-07-31T00:46:07.656Z,99509.97
2022-07-31T00:48:42.279Z,99506.34
2022-07-31T00:51:10.861Z,99504.84
2022-07-31T00:53:38.476Z,99507.13
2022-07-31T00:56:06.028Z,99507.09
2022-07-31T00:58:34.042Z,99507.69
2022-07-31T01:01:01.981Z,99507.66
2022-07-31T01:03:29.504Z,99506.37
2022-07-31T01:05:57.277Z,99507.94
2022-07-31T01:08:24.978Z,99522.06
2022-07-31T01:13:54.615Z,99517.84
2022-07-31T01:16:23.771Z,99519.69
2022-07-31T01:18:53.201Z,99521.19
2022-07-31T01:21:32.839Z,99520.66
2022-07-31T01:24:15.612Z,99518.09
2022-07-31T01:26:55.011Z,99521.22
2022-07-31T01:29:23.472Z,99523.22
2022-07-31T01:31:59.043Z,99534.63
2022-07-31T01:34:58.042Z,99528.00
2022-07-31T01:37:47.610Z,99540.16
2022-07-31T01:40:26.282Z,99532.94
2022-07-31T01:43:02.580Z,99537.25
2022-07-31T01:45:30.956Z,99533.72
2022-07-31T01:47:58.946Z,99537.75
2022-07-31T01:50:42.448Z,99533.25
2022-07-31T01:53:18.661Z,99532.53
2022-07-31T01:56:02.733Z,99527.87
2022-07-31T01:58:40.211Z,99532.12
2022-07-31T02:01:11.611Z,99534.47
2022-07-31T02:03:43.851Z,99531.06
2022-07-31T02:06:15.198Z,99539.78
2022-07-31T02:08:47.882Z,99532.81
2022-07-31T02:11:21.804Z,99531.94
2022-07-31T02:13:50.403Z,99530.72
2022-07-31T02:16:19.707Z,99527.41
2022-07-31T02:18:51.659Z,99518.47
2022-07-31T02:21:20.773Z,99517.00
2022-07-31T02:23:49.203Z,99519.84
2022-07-31T02:26:17.986Z,99509.91
2022-07-31T02:28:47.337Z,99500.88
2022-07-31T02:31:17.276Z,99497.78
2022-07-31T02:33:47.092Z,99492.59
2022-07-31T02:36:16.450Z,99491.56
2022-07-31T02:38:48.030Z,99489.84
2022-07-31T02:41:17.461Z,99494.09
2022-07-31T02:43:47.916Z,99482.22
2022-07-31T02:46:20.295Z,99488.72
2022-07-31T02:48:49.604Z,99485.47
2022-07-31T02:51:18.519Z,99489.13
2022-07-31T02:53:47.221Z,99488.16
2022-07-31T02:56:16.898Z,99495.22
2022-07-31T02:58:44.915Z,99489.41
2022-07-31T03:01:14.438Z,99497.78
2022-07-31T03:03:44.087Z,99498.63
2022-07-31T03:06:13.808Z,99499.63
2022-07-31T03:08:41.854Z,99499.16
2022-07-31T03:11:09.682Z,99496.78
2022-07-31T03:13:38.458Z,99502.81
2022-07-31T03:16:07.553Z,99508.63
2022-07-31T03:18:35.533Z,99500.59
2022-07-31T03:21:04.629Z,99494.09
2022-07-31T03:23:36.660Z,99494.38
2022-07-31T03:26:06.237Z,99483.47
2022-07-31T03:28:35.710Z,99492.25
2022-07-31T03:31:04.614Z,99499.31
2022-07-31T03:33:32.727Z,99488.16
2022-07-31T03:36:01.839Z,99491.84
2022-07-31T03:38:39.199Z,99495.22
2022-07-31T03:41:11.100Z,99482.50
2022-07-31T03:43:44.150Z,99488.13
2022-07-31T03:46:19.847Z,99484.03
2022-07-31T03:48:51.914Z,99485.28
2022-07-31T03:51:19.915Z,99480.53
2022-07-31T03:53:54.820Z,99479.69
2022-07-31T03:56:26.815Z,99486.47
2022-07-31T03:58:54.807Z,99487.31
2022-07-31T04:01:22.718Z,99491.84
2022-07-31T04:03:59.537Z,99498.91
2022-07-31T04:06:27.761Z,99494.94
2022-07-31T04:08:56.387Z,99491.59
2022-07-31T04:11:25.574Z,99492.94
2022-07-31T04:13:53.059Z,99496.63
2022-07-31T04:16:21.792Z,99497.47
2022-07-31T04:18:51.080Z,99500.59
2022-07-31T04:21:19.022Z,99505.94
2022-07-31T04:23:49.570Z,99502.56
2022-07-31T04:26:25.481Z,99499.75
2022-07-31T04:28:55.288Z,99508.78
2022-07-31T04:31:24.963Z,99514.84
2022-07-31T04:33:57.009Z,99502.84
2022-07-31T04:36:30.635Z,99504.00
2022-07-31T04:38:59.965Z,99512.75
2022-07-31T04:41:29.019Z,99506.25
2022-07-31T04:43:59.929Z,99499.16
2022-07-31T04:46:34.063Z,99507.31
2022-07-31T04:49:01.750Z,99503.00
2022-07-31T04:51:29.735Z,99499.72
2022-07-31T04:53:58.385Z,99495.44
2022-07-31T04:56:34.072Z,99496.06
2022-07-31T04:59:09.886Z,99500.03
2022-07-31T05:01:38.656Z,99478.38
2022-07-31T05:04:08.421Z,99496.59
2022-07-31T05:06:49.901Z,99495.97
2022-07-31T05:09:25.427Z,99497.59
2022-07-31T05:11:54.920Z,99499.28
2022-07-31T05:14:23.841Z,99497.72
2022-07-31T05:16:52.946Z,99495.44
2022-07-31T05:19:21.567Z,99497.44
2022-07-31T05:21:54.026Z,99495.03
2022-07-31T05:24:33.295Z,99495.56
2022-07-31T05:27:03.107Z,99494.88
2022-07-31T05:29:31.959Z,99512.56
2022-07-31T05:32:01.149Z,99503.41
2022-07-31T05:34:32.291Z,99506.91
2022-07-31T05:37:01.834Z,99505.81
2022-07-31T05:39:31.122Z,99504.78
2022-07-31T05:42:02.216Z,99510.84
2022-07-31T05:44:31.426Z,99509.84
2022-07-31T05:47:17.076Z,99516.62
2022-07-31T05:49:45.878Z,99514.13
2022-07-31T05:52:13.977Z,99513.37
2022-07-31T05:54:42.395Z,99522.59
2022-07-31T05:57:12.819Z,99515.25
2022-07-31T06:00:04.095Z,99519.81
2022-07-31T06:02:40.592Z,99530.00
2022-07-31T06:05:13.198Z,99523.91
2022-07-31T06:07:47.263Z,99527.75
2022-07-31T06:10:20.702Z,99523.13
2022-07-31T06:12:53.081Z,99529.63
2022-07-31T06:15:22.403Z,99531.38
2022-07-31T06:17:51.158Z,99523.88
2022-07-31T06:20:22.147Z,99527.63
2022-07-31T06:22:52.127Z,99530.97
2022-07-31T06:25:21.149Z,99533.25
2022-07-31T06:27:56.481Z,99537.63
2022-07-31T06:30:30.068Z,99539.75
2022-07-31T06:32:59.092Z,99548.75
2022-07-31T06:35:30.153Z,99541.06
2022-07-31T06:38:03.337Z,99537.75
2022-07-31T06:40:35.189Z,99545.19
2022-07-31T06:43:13.869Z,99537.97
2022-07-31T06:45:51.141Z,99544.91
2022-07-31T06:48:24.299Z,99553.69
2022-07-31T06:53:47.108Z,99555.75
2022-07-31T06:56:14.985Z,99553.50
2022-07-31T06:58:43.556Z,99550.38
2022-07-31T07:01:14.061Z,99545.47
2022-07-31T07:03:43.992Z,99548.84
2022-07-31T07:06:14.050Z,99554.06
2022-07-31T07:08:46.090Z,99547.97
2022-07-31T07:11:15.794Z,99540.38
2022-07-31T07:13:46.972Z,99544.75
2022-07-31T07:16:16.194Z,99543.94
2022-07-31T07:18:44.954Z,99540.09
2022-07-31T07:21:13.504Z,99536.87
2022-07-31T07:23:50.002Z,99537.25
2022-07-31T07:26:21.990Z,99535.87
2022-07-31T07:28:57.563Z,99538.88
2022-07-31T07:31:25.571Z,99535.06
2022-07-31T07:33:57.867Z,99530.25
2022-07-31T07:36:27.490Z,99525.12
2022-07-31T07:39:00.033Z,99532.94
2022-07-31T07:41:32.893Z,99536.63
2022-07-31T07:44:07.490Z,99519.53
2022-07-31T07:46:38.338Z,99522.63
2022-07-31T07:49:08.032Z,99528.56
2022-07-31T07:51:59.102Z,99532.66
2022-07-31T07:54:32.900Z,99531.84
2022-07-31T07:57:13.941Z,99528.03
2022-07-31T07:59:46.983Z,99538.75
2022-07-31T08:02:20.879Z,99528.84
2022-07-31T08:04:50.681Z,99523.19
2022-07-31T08:07:41.894Z,99527.69
2022-07-31T08:10:18.090Z,99538.47
2022-07-31T08:12:49.137Z,99534.81
2022-07-31T08:18:15.228Z,99545.78
2022-07-31T08:20:44.814Z,99544.59
2022-07-31T08:23:19.112Z,99552.34
2022-07-31T08:25:48.234Z,99551.91
2022-07-31T08:28:23.977Z,99546.00
2022-07-31T08:30:54.138Z,99542.75
2022-07-31T08:36:22.231Z,99553.09
2022-07-31T08:38:52.435Z,99550.38
2022-07-31T08:41:39.153Z,99542.84
2022-07-31T08:44:07.724Z,99537.47
2022-07-31T08:46:39.043Z,99555.53
2022-07-31T08:49:09.915Z,99554.13
2022-07-31T08:51:50.966Z,99548.44
2022-07-31T08:54:27.978Z,99558.37
2022-07-31T08:57:02.276Z,99560.69
2022-07-31T08:59:34.174Z,99553.19
2022-07-31T09:02:05.644Z,99558.44
2022-07-31T09:04:35.930Z,99559.19
2022-07-31T09:07:05.216Z,99559.13
2022-07-31T09:09:41.138Z,99569.63
2022-07-31T09:12:33.929Z,99576.19
2022-07-31T09:15:02.867Z,99580.31
2022-07-31T09:17:35.145Z,99576.22
2022-07-31T09:20:05.807Z,99586.25
2022-07-31T09:22:37.910Z,99582.59
2022-07-31T09:25:12.866Z,99583.72
2022-07-31T09:27:43.830Z,99585.97
2022-07-31T09:30:13.062Z,99591.34
2022-07-31T09:32:45.029Z,99612.66
2022-07-31T09:35:18.093Z,99595.50
2022-07-31T09:37:47.801Z,99602.91
2022-07-31T09:40:21.311Z,99593.75
2022-07-31T09:42:58.025Z,99577.09
2022-07-31T09:45:32.783Z,99581.13
2022-07-31T09:48:12.570Z,99575.78
2022-07-31T09:50:57.279Z,99577.19
2022-07-31T09:53:28.376Z,99571.12
2022-07-31T09:55:58.844Z,99574.37
2022-07-31T09:58:30.159Z,99559.13
2022-07-31T10:00:57.980Z,99570.47
2022-07-31T10:03:28.878Z,99570.38
2022-07-31T10:05:58.870Z,99575.13
2022-07-31T10:08:29.560Z,99574.03
2022-07-31T10:11:00.938Z,99581.94
2022-07-31T10:13:42.527Z,99573.50
2022-07-31T10:16:11.958Z,99582.50
2022-07-31T10:18:46.775Z,99561.19
2022-07-31T10:21:26.925Z,99558.44
2022-07-31T10:24:00.138Z,99559.03
2022-07-31T10:26:50.592Z,99577.41
2022-07-31T10:29:18.346Z,99560.38
2022-07-31T10:31:51.231Z,99563.69
2022-07-31T10:34:25.132Z,99569.97
2022-07-31T10:37:05.536Z,99576.44
2022-07-31T10:40:18.111Z,99573.06
2022-07-31T10:43:21.249Z,99567.41
2022-07-31T10:45:53.944Z,99572.19
2022-07-31T10:48:24.134Z,99560.59
2022-07-31T10:51:09.301Z,99578.75
2022-07-31T10:53:55.241Z,99572.59
2022-07-31T10:56:30.907Z,99584.63
2022-07-31T10:59:04.128Z,99585.19
2022-07-31T11:01:34.996Z,99603.34
2022-07-31T11:04:05.382Z,99598.56
2022-07-31T11:06:41.000Z,99592.59
2022-07-31T11:09:09.925Z,99595.06
2022-07-31T11:11:38.894Z,99602.75
2022-07-31T11:14:08.141Z,99615.13
2022-07-31T11:16:55.960Z,99613.22
2022-07-31T11:19:41.310Z,99617.44
2022-07-31T11:22:31.233Z,99618.34
2022-07-31T11:25:02.269Z,99618.28
2022-07-31T11:27:34.107Z,99618.31
2022-07-31T11:30:12.473Z,99616.78
2022-07-31T11:32:51.094Z,99619.22
2022-07-31T11:35:29.922Z,99616.78
2022-07-31T11:38:00.366Z,99624.41
2022-07-31T11:40:29.833Z,99629.72
2022-07-31T11:45:52.791Z,99635.44
2022-07-31T11:48:28.152Z,99631.38
2022-07-31T11:51:04.310Z,99626.19
2022-07-31T11:53:41.956Z,99632.38
2022-07-31T11:56:10.453Z,99626.13
2022-07-31T11:58:49.594Z,99638.94
2022-07-31T12:01:28.077Z,99636.72
2022-07-31T12:04:08.310Z,99635.59
2022-07-31T12:06:49.130Z,99637.16
2022-07-31T12:10:02.121Z,99631.28
2022-07-31T12:12:12.279Z,99633.59
2022-07-31T12:14:41.175Z,99619.28
2022-07-31T12:17:19.755Z,99632.94
2022-07-31T12:19:57.720Z,99628.41
2022-07-31T12:22:36.153Z,99637.56
2022-07-31T12:25:09.754Z,99625.53
2022-07-31T12:27:45.185Z,99639.81
2022-07-31T12:30:19.966Z,99640.25
2022-07-31T12:32:54.094Z,99634.75
2022-07-31T12:35:25.926Z,99634.28
2022-07-31T12:38:38.211Z,99642.78
2022-07-31T12:41:14.136Z,99661.03
2022-07-31T12:43:52.425Z,99657.87
2022-07-31T12:46:39.080Z,99652.81
2022-07-31T12:49:15.906Z,99657.00
2022-07-31T12:51:47.185Z,99659.09
2022-07-31T12:54:20.137Z,99663.81
2022-07-31T12:56:50.170Z,99654.31
2022-07-31T12:59:18.179Z,99658.78
2022-07-31T13:01:46.352Z,99653.19
2022-07-31T13:04:18.859Z,99655.88
2022-07-31T13:06:51.401Z,99663.09
2022-07-31T13:09:21.346Z,99655.41
2022-07-31T13:11:53.370Z,99648.69
2022-07-31T13:14:28.308Z,99653.13
2022-07-31T13:17:06.375Z,99662.19
2022-07-31T13:19:35.184Z,99671.13
2022-07-31T13:22:12.801Z,99684.41
2022-07-31T13:24:42.907Z,99682.41
2022-07-31T13:27:11.920Z,99668.84
2022-07-31T13:29:43.090Z,99680.44
2022-07-31T13:32:18.976Z,99674.91
2022-07-31T13:35:27.235Z,99674.50
2022-07-31T13:37:41.920Z,99659.63
2022-07-31T13:40:11.443Z,99661.19
2022-07-31T13:42:43.962Z,99662.06
2022-07-31T13:45:14.938Z,99664.56
2022-07-31T13:47:51.116Z,99654.56
2022-07-31T13:50:24.250Z,99652.84
2022-07-31T13:52:57.916Z,99654.69
2022-07-31T13:55:29.913Z,99649.59
2022-07-31T13:57:59.809Z,99655.97
2022-07-31T14:00:32.930Z,99649.03
2022-07-31T14:03:02.152Z,99652.16
2022-07-31T14:05:37.308Z,99649.47
2022-07-31T14:08:30.666Z,99653.28
2022-07-31T14:10:59.863Z,99643.22
2022-07-31T14:13:42.700Z,99631.41
2022-07-31T14:16:20.980Z,99639.31
2022-07-31T14:18:55.153Z,99643.78
2022-07-31T14:24:04.917Z,99642.09
2022-07-31T14:26:46.069Z,99634.16
2022-07-31T14:29:17.572Z,99626.78
2022-07-31T14:31:45.973Z,99643.81
2022-07-31T14:34:16.192Z,99643.87
2022-07-31T14:39:30.369Z,99648.69
2022-07-31T14:42:09.940Z,99650.16
2022-07-31T14:44:43.263Z,99662.59
2022-07-31T14:47:11.801Z,99652.66
2022-07-31T14:50:08.976Z,99661.47
2022-07-31T14:52:32.224Z,99657.22
2022-07-31T14:55:21.020Z,99654.41
2022-07-31T15:00:29.278Z,99649.75
2022-07-31T15:02:59.402Z,99639.94
2022-07-31T15:06:42.324Z,99629.72
2022-07-31T15:10:54.929Z,99630.47
2022-07-31T15:13:26.094Z,99638.00
2022-07-31T15:15:59.944Z,99628.03
2022-07-31T15:18:39.007Z,99626.00
2022-07-31T15:21:12.543Z,99627.63
2022-07-31T15:23:47.074Z,99608.59
2022-07-31T15:26:16.104Z,99611.22
2022-07-31T15:28:46.047Z,99619.28
2022-07-31T15:31:32.105Z,99600.41
2022-07-31T15:34:04.371Z,99612.59
2022-07-31T15:36:35.949Z,99611.97
2022-07-31T15:39:12.912Z,99616.84
2022-07-31T15:41:45.952Z,99616.84
2022-07-31T15:44:17.116Z,99616.34
2022-07-31T15:46:52.315Z,99600.66
2022-07-31T15:49:44.113Z,99605.13
2022-07-31T15:52:21.295Z,99600.31
2022-07-31T15:55:01.871Z,99588.19
2022-07-31T15:57:44.941Z,99597.41
2022-07-31T16:00:14.309Z,99604.47
2022-07-31T16:02:45.573Z,99604.28
2022-07-31T16:05:22.020Z,99599.91
2022-07-31T16:08:32.587Z,99602.25
2022-07-31T16:11:14.098Z,99592.28
2022-07-31T16:13:43.306Z,99601.47
2022-07-31T16:16:11.578Z,99617.28
2022-07-31T16:18:40.029Z,99608.28
2022-07-31T16:23:51.691Z,99603.88
2022-07-31T16:26:25.981Z,99610.94
2022-07-31T16:29:17.458Z,99616.59
2022-07-31T16:31:45.730Z,99605.75
2022-07-31T16:34:13.947Z,99599.25
2022-07-31T16:36:47.612Z,99608.62
2022-07-31T16:39:22.495Z,99604.66
2022-07-31T16:42:02.472Z,99605.72
2022-07-31T16:47:14.131Z,99607.34
2022-07-31T16:52:36.022Z,99613.53
2022-07-31T16:55:11.402Z,99614.72
2022-07-31T16:57:44.939Z,99616.34
2022-07-31T17:00:26.993Z,99616.25
2022-07-31T17:03:59.164Z,99616.50
2022-07-31T17:05:59.903Z,99615.16
2022-07-31T17:08:34.061Z,99618.53
2022-07-31T17:11:08.977Z,99609.31
2022-07-31T17:13:37.638Z,99607.75
2022-07-31T17:16:12.978Z,99603.81
2022-07-31T17:18:52.868Z,99601.66
2022-07-31T17:21:30.823Z,99604.31
2022-07-31T17:24:02.316Z,99586.75
2022-07-31T17:26:45.948Z,99590.91
2022-07-31T17:29:17.180Z,99590.44
2022-07-31T17:31:58.162Z,99594.81
2022-07-31T17:34:36.181Z,99606.75
2022-07-31T17:37:18.137Z,99601.81
2022-07-31T17:39:56.257Z,99596.09
2022-07-31T17:42:27.970Z,99599.28
2022-07-31T17:45:02.122Z,99609.81
2022-07-31T17:47:35.015Z,99616.03
2022-07-31T17:50:06.138Z,99615.53
2022-07-31T17:52:41.008Z,99617.31
2022-07-31T17:55:16.539Z,99619.81
2022-07-31T17:57:47.482Z,99614.75
2022-07-31T18:00:22.672Z,99610.91
2022-07-31T18:03:04.188Z,99618.50
2022-07-31T18:05:43.228Z,99630.25
2022-07-31T18:08:22.115Z,99621.59
2022-07-31T18:10:54.814Z,99633.88
2022-07-31T18:13:48.246Z,99627.59
2022-07-31T18:16:20.296Z,99632.97
2022-07-31T18:19:13.946Z,99635.75
2022-07-31T18:24:31.371Z,99635.28
2022-07-31T18:27:07.901Z,99636.69
2022-07-31T18:32:29.057Z,99642.78
2022-07-31T18:34:59.913Z,99635.97
2022-07-31T18:37:35.990Z,99647.81
2022-07-31T18:40:09.802Z,99649.50
2022-07-31T18:42:39.176Z,99654.06
2022-07-31T18:45:15.947Z,99652.63
2022-07-31T18:47:54.968Z,99652.06
2022-07-31T18:51:00.752Z,99652.69
2022-07-31T18:53:43.254Z,99661.72
2022-07-31T18:56:24.942Z,99661.00
2022-07-31T18:59:06.088Z,99665.09
2022-07-31T19:01:49.289Z,99669.38
2022-07-31T19:04:37.092Z,99668.81
2022-07-31T19:07:11.967Z,99677.56
2022-07-31T19:09:44.223Z,99673.63
2022-07-31T19:12:29.067Z,99681.59
2022-07-31T19:15:06.007Z,99683.13
2022-07-31T19:17:44.154Z,99688.09
2022-07-31T19:23:12.469Z,99694.72
2022-07-31T19:25:59.584Z,99704.50
2022-07-31T19:28:42.024Z,99694.31
2022-07-31T19:31:32.206Z,99696.72
2022-07-31T19:34:04.075Z,99698.59
2022-07-31T19:36:47.256Z,99709.31
2022-07-31T19:39:19.197Z,99699.69
2022-07-31T19:42:11.472Z,99702.22
2022-07-31T19:47:30.969Z,99709.59
2022-07-31T19:49:59.079Z,99704.22
2022-07-31T19:52:31.857Z,99703.53
2022-07-31T19:55:13.867Z,99694.31
2022-07-31T19:58:03.016Z,99701.09
2022-07-31T20:00:36.897Z,99710.16
2022-07-31T20:03:08.494Z,99696.56
2022-07-31T20:05:46.776Z,99698.28
2022-07-31T20:08:24.012Z,99689.63
2022-07-31T20:10:54.633Z,99694.31
2022-07-31T20:13:36.318Z,99689.22
2022-07-31T20:16:08.132Z,99690.59
2022-07-31T20:21:16.766Z,99688.34
2022-07-31T20:23:55.124Z,99679.88
2022-07-31T20:26:25.228Z,99683.81
2022-07-31T20:29:11.931Z,99684.12
2022-07-31T20:31:48.956Z,99684.69
2022-07-31T20:34:23.943Z,99682.41
2022-07-31T20:36:54.053Z,99681.03
2022-07-31T20:39:34.074Z,99681.28
2022-07-31T20:42:09.796Z,99680.59
2022-07-31T20:44:40.697Z,99682.13
2022-07-31T20:47:09.224Z,99679.19
2022-07-31T20:49:47.075Z,99682.72
2022-07-31T20:52:15.953Z,99680.31
2022-07-31T20:54:45.887Z,99681.97
2022-07-31T20:57:16.312Z,99695.47
2022-07-31T20:59:44.102Z,99691.16
2022-07-31T21:02:19.905Z,99683.16
2022-07-31T21:04:48.979Z,99690.88
2022-07-31T21:07:17.445Z,99683.53
2022-07-31T21:09:46.110Z,99687.22
2022-07-31T21:12:14.933Z,99683.72
2022-07-31T21:14:44.350Z,99692.59
2022-07-31T21:17:14.099Z,99684.56
2022-07-31T21:19:44.154Z,99683.81
2022-07-31T21:22:11.818Z,99682.41
2022-07-31T21:24:40.793Z,99690.69
2022-07-31T21:27:12.109Z,99687.91
2022-07-31T21:29:40.688Z,99693.66
2022-07-31T21:32:10.285Z,99696.53
2022-07-31T21:34:38.392Z,99694.28
2022-07-31T21:37:07.602Z,99687.22
2022-07-31T21:39:37.859Z,99696.75
2022-07-31T21:42:08.096Z,99701.75
2022-07-31T21:44:40.014Z,99702.22
2022-07-31T21:47:13.987Z,99707.00
2022-07-31T21:49:46.121Z,99709.69
2022-07-31T21:52:13.987Z,99716.91
2022-07-31T21:54:42.337Z,99708.44
2022-07-31T21:57:12.210Z,99714.62
2022-07-31T21:59:42.638Z,99717.63
2022-07-31T22:02:11.192Z,99718.66
2022-07-31T22:04:58.156Z,99712.97
2022-07-31T22:07:34.756Z,99724.41
2022-07-31T22:10:06.085Z,99727.56
2022-07-31T22:12:36.044Z,99727.25
2022-07-31T22:15:11.240Z,99729.16
2022-07-31T22:17:43.355Z,99732.88
2022-07-31T22:20:12.279Z,99722.34
2022-07-31T22:22:40.551Z,99730.38
2022-07-31T22:25:09.012Z,99728.84
2022-07-31T22:27:55.805Z,99722.91
2022-07-31T22:30:26.159Z,99718.47
2022-07-31T22:32:59.013Z,99716.53
2022-07-31T22:35:28.482Z,99716.50
2022-07-31T22:37:57.230Z,99716.41
2022-07-31T22:40:25.924Z,99714.31
2022-07-31T22:42:58.334Z,99718.84
2022-07-31T22:45:27.436Z,99717.00
2022-07-31T22:47:55.178Z,99709.84
2022-07-31T22:50:23.329Z,99722.34
2022-07-31T22:52:52.054Z,99725.09
2022-07-31T22:55:20.217Z,99717.03
2022-07-31T22:57:49.347Z,99722.56
2022-07-31T23:00:18.412Z,99726.47
2022-07-31T23:02:46.377Z,99718.97
2022-07-31T23:05:14.073Z,99723.25
2022-07-31T23:07:45.709Z,99719.78
2022-07-31T23:10:14.639Z,99717.22
2022-07-31T23:12:42.305Z,99721.06
2022-07-31T23:15:22.931Z,99720.28
2022-07-31T23:17:54.853Z,99720.28
2022-07-31T23:20:40.012Z,99720.78
2022-07-31T23:23:07.545Z,99713.00
2022-07-31T23:25:53.362Z,99714.91
2022-07-31T23:28:33.115Z,99710.78
2022-07-31T23:31:01.435Z,99702.78
2022-07-31T23:33:28.954Z,99704.31
2022-07-31T23:35:57.045Z,99708.66
2022-07-31T23:38:26.082Z,99714.06
2022-07-31T23:40:56.910Z,99713.19
2022-07-31T23:43:54.374Z,99715.38
2022-07-31T23:46:26.866Z,99714.81
2022-07-31T23:49:43.451Z,99709.69
2022-07-31T23:52:31.463Z,99702.84
2022-07-31T23:55:00.052Z,99699.09
2022-07-31T23:57:27.933Z,99713.25
